Time;durP1;ratioP1;P1;durP2;ratioP2;P2;SDS_P1;SDS_P2;PMS_P1;PMS_P2;Temp;Humidity;BMP_temperature;BMP_pressure;BME280_temperature;BME280_humidity;BME280_pressure;Samples;Min_cycle;Max_cycle;Signal;HPM_P1;HPM_P2
2022/08/11 04:23:02;;;;;;;4.55;2.42;;;;;;;17.51;52.56;100642.84;5089067;28;20576;-66
2022/08/11 04:25:40;;;;;;;2.40;2.20;;;;;;;17.50;53.04;100633.13;5089044;28;20036;-66
2022/08/11 04:28:39;;;;;;;3.95;2.35;;;;;;;17.51;53.05;100637.47;5089033;28;20105;-66
2022/08/11 04:31:05;;;;;;;3.83;2.53;;;;;;;17.45;52.91;100630.22;5089117;28;20556;-66
2022/08/11 04:33:49;;;;;;;3.00;2.17;;;;;;;17.47;53.01;100633.53;5089018;28;20115;-66
2022/08/11 04:40:01;;;;;;;2.97;2.03;;;;;;;17.49;52.99;100636.84;5088569;28;20113;-66
2022/08/11 04:45:36;;;;;;;2.90;1.92;;;;;;;17.57;52.80;100644.72;5072336;28;20040;-65
2022/08/11 05:03:12;;;;;;;5.80;2.35;;;;;;;17.70;52.90;100646.56;5088424;28;20440;-65
2022/08/11 05:05:43;;;;;;;3.00;2.10;;;;;;;17.72;52.78;100651.75;5088490;28;20498;-66
2022/08/11 05:08:53;;;;;;;3.53;2.25;;;;;;;17.79;52.99;100649.88;5088203;28;20397;-65
2022/08/11 05:11:21;;;;;;;3.88;2.17;;;;;;;17.85;52.72;100655.25;5088093;28;20031;-65
2022/08/11 05:37:11;;;;;;;3.38;2.40;;;;;;;18.58;50.49;100640.66;5074121;28;20036;-45
2022/08/11 05:56:53;;;;;;;3.03;2.13;;;;;;;19.18;49.66;100660.84;5064510;28;20485;-47
2022/08/11 05:59:19;;;;;;;3.25;2.15;;;;;;;19.25;49.03;100655.41;5069176;28;20059;-44
2022/08/11 06:01:46;;;;;;;6.72;2.20;;;;;;;19.32;48.25;100649.94;5073778;28;20474;-47
2022/08/11 06:04:19;;;;;;;;;;;;;;;19.37;48.63;100656.34;5074219;28;20043;-44
2022/08/11 06:06:52;;;;;;;3.40;2.20;;;;;;;19.45;48.36;100660.63;5073638;28;19916;-45
2022/08/11 06:09:38;;;;;;;2.75;2.30;;;;;;;19.49;48.19;100659.13;5073384;28;20036;-45
2022/08/11 06:12:16;;;;;;;2.97;2.20;;;;;;;19.50;48.21;100658.09;5073699;28;20094;-46
2022/08/11 06:14:44;;;;;;;3.65;2.30;;;;;;;19.60;48.31;100657.63;5073602;28;20043;-43
2022/08/11 06:17:12;;;;;;;2.75;2.20;;;;;;;19.63;48.31;100662.59;5073012;28;20033;-43
2022/08/11 06:19:41;;;;;;;;;;;;;;;19.67;48.57;100661.91;5073593;28;20029;-45
2022/08/11 06:22:11;;;;;;;2.00;1.80;;;;;;;19.71;48.28;100654.19;5073378;28;20329;-46
2022/08/11 06:24:39;;;;;;;4.05;2.40;;;;;;;19.78;48.59;100650.34;5073304;28;20029;-48
2022/08/11 06:27:06;;;;;;;5.28;2.42;;;;;;;19.81;48.27;100659.06;5072313;28;20432;-48
2022/08/11 06:29:39;;;;;;;4.13;2.37;;;;;;;19.85;47.99;100666.50;5073352;28;20032;-45
2022/08/11 06:32:05;;;;;;;2.70;2.40;;;;;;;19.85;47.76;100669.22;5067162;28;20028;-44
2022/08/11 06:34:46;;;;;;;4.53;2.28;;;;;;;19.94;48.25;100664.31;5059940;28;20098;-48
2022/08/11 06:37:17;;;;;;;3.20;2.40;;;;;;;20.00;47.45;100660.72;5062993;28;20087;-45
2022/08/11 06:39:49;;;;;;;3.20;2.47;;;;;;;20.06;47.64;100659.81;5061342;28;20024;-47
2022/08/11 06:42:35;;;;;;;2.63;2.25;;;;;;;20.12;47.29;100656.22;5061930;28;20194;-47
2022/08/11 06:45:15;;;;;;;3.42;2.50;;;;;;;20.18;47.44;100663.44;5068716;28;20071;-48
2022/08/11 06:47:45;;;;;;;3.15;2.38;;;;;;;20.25;47.14;100660.66;5073066;28;20040;-45
2022/08/11 06:53:02;;;;;;;4.07;2.30;;;;;;;20.42;46.90;100658.16;5072907;28;20044;-48
2022/08/11 07:01:08;;;;;;;3.40;2.00;;;;;;;20.67;46.74;100658.91;5072301;28;20036;-48
2022/08/11 07:03:41;;;;;;;5.20;2.50;;;;;;;20.74;47.24;100659.63;5072696;28;20041;-44
2022/08/11 07:06:31;;;;;;;2.92;1.90;;;;;;;20.86;46.48;100663.19;5065814;28;20035;-44
2022/08/11 07:29:10;;;;;;;3.78;2.28;;;;;;;21.70;45.57;100657.66;5051780;28;20123;-63
2022/08/11 07:31:44;;;;;;;4.03;2.03;;;;;;;21.81;44.49;100658.72;5051941;28;20040;-63
2022/08/11 07:34:20;;;;;;;3.17;2.38;;;;;;;21.94;43.98;100653.88;5051978;28;20123;-63
2022/08/11 07:36:55;;;;;;;3.08;2.25;;;;;;;22.07;44.40;100643.81;5051909;28;20120;-63
2022/08/11 07:39:25;;;;;;;3.00;2.30;;;;;;;22.19;43.67;100648.19;5050400;28;20041;-62
2022/08/11 07:41:53;;;;;;;4.10;2.40;;;;;;;22.29;44.03;100642.13;5051866;28;20094;-63
2022/08/11 07:44:20;;;;;;;4.57;2.30;;;;;;;22.47;43.04;100646.56;5051885;28;20037;-62
2022/08/11 07:52:26;;;;;;;;;;;;;;;22.81;41.70;100639.31;5052205;28;20028;-63
2022/08/11 07:54:54;;;;;;;4.57;2.28;;;;;;;22.92;41.18;100632.22;5051748;28;20266;-63
2022/08/11 08:19:20;;;;;;;2.75;2.05;;;;;;;24.12;39.19;100629.94;5061147;28;20072;-63
2022/08/11 08:21:46;;;;;;;2.97;2.50;;;;;;;24.16;38.56;100631.91;5061609;28;20037;-62
2022/08/11 08:24:13;;;;;;;3.97;2.63;;;;;;;24.21;39.04;100628.44;5062016;28;20035;-64
2022/08/11 08:27:03;;;;;;;4.25;1.98;;;;;;;24.33;38.85;100627.25;5063683;28;20469;-64
2022/08/11 08:32:19;;;;;;;4.45;2.17;;;;;;;24.62;37.79;100629.72;5071152;28;20032;-64
2022/08/11 08:34:45;;;;;;;6.93;2.08;;;;;;;24.78;37.64;100631.53;5071360;28;20048;-64
2022/08/11 08:37:12;;;;;;;2.27;2.00;;;;;;;24.84;37.55;100633.22;5071305;28;20099;-63
2022/08/11 08:39:38;;;;;;;4.22;2.20;;;;;;;24.98;37.13;100636.34;5071062;28;20279;-64
2022/08/11 08:42:12;;;;;;;1.85;1.70;;;;;;;25.15;36.85;100617.97;5071081;28;20382;-63
2022/08/11 08:44:45;;;;;;;2.38;2.13;;;;;;;25.25;36.73;100633.59;5071079;28;20043;-63
2022/08/11 08:47:17;;;;;;;3.15;2.10;;;;;;;25.32;36.17;100634.19;5071159;28;20185;-63
2022/08/11 08:49:58;;;;;;;2.95;1.77;;;;;;;25.50;35.56;100632.94;5070993;28;20041;-63
2022/08/11 08:52:29;;;;;;;5.18;2.03;;;;;;;25.65;34.64;100641.22;5071199;28;20043;-62
2022/08/11 08:55:00;;;;;;;2.63;2.20;;;;;;;25.67;34.78;100643.69;5071208;28;20044;-64
2022/08/11 08:57:27;;;;;;;5.82;1.88;;;;;;;25.85;34.84;100637.00;5071193;28;20040;-64
2022/08/11 08:59:54;;;;;;;2.20;1.92;;;;;;;25.99;35.53;100643.59;5070872;28;20039;-64
2022/08/11 09:02:24;;;;;;;3.00;1.95;;;;;;;26.13;35.06;100638.47;5071081;28;20044;-55
2022/08/11 09:04:50;;;;;;;4.30;2.05;;;;;;;26.32;34.66;100631.47;5071157;28;20089;-59
2022/08/11 09:07:19;;;;;;;2.03;1.65;;;;;;;26.50;34.21;100641.09;5071345;28;20025;-58
2022/08/11 09:09:50;;;;;;;2.33;1.98;;;;;;;26.60;33.97;100635.66;5074418;28;20040;-57
2022/08/11 09:12:18;;;;;;;2.80;2.10;;;;;;;26.64;33.42;100639.50;5074757;28;20181;-53
2022/08/11 09:14:59;;;;;;;3.55;2.22;;;;;;;26.78;32.86;100629.66;5074783;28;20037;-58
2022/08/11 09:17:50;;;;;;;5.72;2.08;;;;;;;26.96;32.85;100630.25;5074537;28;20036;-57
2022/08/11 09:20:25;;;;;;;3.13;2.10;;;;;;;27.00;32.77;100632.16;5069099;28;20444;-58
2022/08/11 09:28:28;;;;;;;4.78;2.05;;;;;;;27.48;32.18;100626.41;5074493;28;20045;-67
2022/08/11 09:30:55;;;;;;;2.80;2.03;;;;;;;27.64;31.58;100625.28;5074094;28;20040;-48
2022/08/11 09:33:23;;;;;;;3.47;2.17;;;;;;;27.70;31.82;100631.59;5074394;28;20548;-53
2022/08/11 09:35:51;;;;;;;3.15;2.30;;;;;;;27.91;31.98;100630.44;5074355;28;20041;-55
2022/08/11 09:41:05;;;;;;;3.93;2.00;;;;;;;28.25;31.53;100625.09;5073923;28;20046;-56
2022/08/11 09:46:21;;;;;;;4.22;2.28;;;;;;;28.38;30.68;100621.75;5074074;28;20040;-56
2022/08/11 09:49:03;;;;;;;3.78;2.55;;;;;;;28.61;30.62;100616.69;5074128;28;20525;-60
2022/08/11 09:51:31;;;;;;;3.75;2.22;;;;;;;28.67;31.76;100621.03;5074036;28;20025;-56
2022/08/11 09:54:00;;;;;;;3.72;1.90;;;;;;;29.06;30.39;100622.94;5073949;28;20449;-61
2022/08/11 09:59:12;;;;;;;2.80;1.60;;;;;;;29.22;29.34;100608.00;5073695;28;20047;-54
2022/08/11 10:01:51;;;;;;;5.38;2.10;;;;;;;29.46;29.04;100611.59;5073788;28;20295;-56
2022/08/11 10:04:37;;;;;;;2.65;1.85;;;;;;;29.80;28.03;100618.97;5073919;28;20492;-54
2022/08/11 10:07:09;;;;;;;3.28;2.10;;;;;;;29.53;28.37;100604.97;5073785;28;20029;-57
2022/08/11 10:09:43;;;;;;;3.95;2.00;;;;;;;29.63;29.11;100613.09;5073292;28;20524;-54
2022/08/11 10:12:12;;;;;;;3.17;2.10;;;;;;;29.61;28.23;100607.91;5073661;28;20515;-55
2022/08/11 10:17:31;;;;;;;3.25;2.00;;;;;;;29.84;27.54;100588.97;5073525;28;20071;-53
2022/08/11 10:20:01;;;;;;;3.05;1.90;;;;;;;30.03;26.91;100597.25;5071781;28;20085;-56
2022/08/11 10:27:59;;;;;;;3.17;1.95;;;;;;;30.43;27.10;100590.41;5073459;28;20040;-61
2022/08/11 10:35:58;;;;;;;2.60;2.20;;;;;;;30.82;26.99;100581.84;5073168;28;20072;-61
2022/08/11 10:38:25;;;;;;;2.20;2.00;;;;;;;31.15;26.42;100587.34;5073120;28;20535;-61
2022/08/11 10:43:01;;;;;;;2.17;1.98;;;;;;;31.50;26.08;100574.91;5072743;28;20409;-60
2022/08/11 10:43:39;;;;;;;3.22;1.95;;;;;;;31.81;26.03;100578.69;5073017;28;20068;-60
2022/08/11 10:48:54;;;;;;;2.75;1.90;;;;;;;32.06;24.32;100566.31;5072843;28;20041;-60
2022/08/11 10:51:19;;;;;;;2.97;1.95;;;;;;;32.02;24.97;100562.56;5071281;28;20045;-59
2022/08/11 10:59:22;;;;;;;2.25;1.70;;;;;;;33.40;22.96;100537.16;5072418;28;20133;-60
2022/08/11 11:01:48;;;;;;;;;;;;;;;33.17;22.72;100545.44;5073154;28;20484;-59
2022/08/11 11:04:17;;;;;;;3.97;1.80;;;;;;;33.33;22.89;100540.34;5072674;28;20003;-61
2022/08/11 11:07:12;;;;;;;2.58;1.52;;;;;;;33.80;20.69;100542.63;5072267;28;20048;-61
2022/08/11 11:09:49;;;;;;;3.72;1.70;;;;;;;33.09;20.41;100526.09;5072245;28;20032;-61
2022/08/11 11:18:03;;;;;;;1.45;1.35;;;;;;;33.84;20.61;100535.31;5072350;28;20068;-61
2022/08/11 11:20:44;;;;;;;3.08;1.30;;;;;;;34.31;20.29;100525.31;5071989;28;20051;-61
2022/08/11 11:23:32;;;;;;;3.30;1.45;;;;;;;34.14;20.59;100523.34;5072112;28;20127;-60
2022/08/11 11:26:13;;;;;;;1.55;1.30;;;;;;;34.20;20.87;100522.06;5071939;28;20066;-61
2022/08/11 11:28:57;;;;;;;2.70;1.50;;;;;;;34.21;20.02;100512.63;5071988;28;20517;-60
2022/08/11 11:31:39;;;;;;;2.30;1.45;;;;;;;34.35;19.75;100515.22;5071577;28;20041;-61
2022/08/11 11:34:20;;;;;;;1.88;1.50;;;;;;;35.06;20.28;100514.81;5072140;28;20504;-60
2022/08/11 11:36:55;;;;;;;2.40;1.63;;;;;;;35.01;19.61;100510.25;5071929;28;20060;-60
2022/08/11 11:39:27;;;;;;;4.28;1.50;;;;;;;34.60;19.79;100510.03;5071605;28;20036;-61
2022/08/11 11:41:55;;;;;;;4.70;1.80;;;;;;;35.33;19.65;100502.47;5071865;28;20036;-61
2022/08/11 11:44:22;;;;;;;2.83;1.70;;;;;;;35.32;19.83;100507.19;5071986;28;20036;-61
2022/08/11 11:46:49;;;;;;;2.90;1.90;;;;;;;35.06;19.38;100512.03;5071860;28;20040;-61
2022/08/11 11:49:22;;;;;;;1.73;1.63;;;;;;;35.48;19.57;100499.19;5070343;28;20078;-61
2022/08/11 11:51:51;;;;;;;5.80;2.10;;;;;;;35.41;18.35;100493.34;5071624;28;20037;-62
2022/08/11 11:54:20;;;;;;;2.13;1.50;;;;;;;35.92;18.42;100501.69;5071732;28;20412;-62
2022/08/11 11:56:46;;;;;;;1.65;1.40;;;;;;;35.88;18.08;100496.78;5071649;28;20123;-60
2022/08/11 12:01:58;;;;;;;2.00;1.50;;;;;;;36.67;17.34;100485.88;5071535;28;20037;-60
2022/08/11 12:04:25;;;;;;;2.22;1.90;;;;;;;36.53;17.37;100488.94;5071650;28;20040;-60
2022/08/11 12:08:08;;;;;;;4.15;1.50;;;;;;;36.57;17.19;100489.88;5071423;28;20047;-61
2022/08/11 12:09:37;;;;;;;2.17;1.65;;;;;;;36.54;18.31;100489.75;5071146;28;20049;-61
2022/08/11 12:14:47;;;;;;;2.00;1.48;;;;;;;36.93;17.49;100486.41;5071617;28;20047;-62
2022/08/11 12:17:13;;;;;;;1.83;1.33;;;;;;;36.12;17.14;100476.72;5071412;28;20029;-62
2022/08/11 12:19:38;;;;;;;3.00;1.60;;;;;;;36.34;17.20;100474.75;5069998;28;20497;-62
2022/08/11 12:27:40;;;;;;;4.55;1.65;;;;;;;37.07;16.47;100455.53;5055141;28;20126;-62
2022/08/11 12:30:07;;;;;;;3.55;1.50;;;;;;;36.59;17.59;100456.25;5071119;28;20041;-62
2022/08/11 12:32:35;;;;;;;3.47;1.30;;;;;;;37.30;16.56;100463.38;5071232;28;20071;-60
2022/08/11 12:35:01;;;;;;;1.50;1.30;;;;;;;36.40;17.22;100445.69;5071313;28;20112;-62
2022/08/11 12:37:38;;;;;;;2.03;1.38;;;;;;;36.49;16.71;100448.38;5071080;28;20054;-62
2022/08/11 12:45:41;;;;;;;2.20;1.40;;;;;;;36.61;16.75;100445.63;5075144;28;20071;-62
2022/08/11 12:54:05;;;;;;;2.30;1.60;;;;;;;36.92;16.91;100429.28;5075032;28;20066;-61
2022/08/11 13:05:04;;;;;;;3.17;1.50;;;;;;;38.12;16.31;100432.56;5074905;28;20094;-62
2022/08/11 13:07:32;;;;;;;3.08;1.70;;;;;;;37.13;17.28;100423.59;5075262;28;20044;-61
2022/08/11 13:10:00;;;;;;;2.40;1.42;;;;;;;38.12;17.12;100418.66;5074381;28;20074;-61
2022/08/11 13:15:20;;;;;;;2.60;1.50;;;;;;;38.63;15.42;100408.56;5074470;28;20039;-61
2022/08/11 13:17:48;;;;;;;3.20;1.48;;;;;;;37.84;15.97;100415.91;5074568;28;20416;-61
2022/08/11 13:20:18;;;;;;;2.95;1.60;;;;;;;37.28;17.22;100416.53;5073847;28;20111;-62
2022/08/11 13:22:47;;;;;;;3.45;1.60;;;;;;;37.36;16.96;100414.81;5074458;28;20033;-61
2022/08/11 13:25:15;;;;;;;2.53;1.38;;;;;;;37.12;16.42;100410.09;5074293;28;20036;-62
2022/08/11 13:27:45;;;;;;;4.78;1.73;;;;;;;37.28;16.53;100405.44;5074303;28;20045;-61
2022/08/11 13:32:58;;;;;;;2.05;1.55;;;;;;;37.42;15.78;100403.13;5074242;28;20033;-61
2022/08/11 13:35:24;;;;;;;3.00;1.80;;;;;;;36.91;16.11;100385.22;5073987;28;20144;-60
2022/08/11 13:37:50;;;;;;;2.13;1.60;;;;;;;37.12;16.54;100385.91;5074082;28;20397;-60
2022/08/11 13:40:16;;;;;;;;;;;;;;;35.41;17.34;100374.28;5074276;28;20075;-62
2022/08/11 13:42:43;;;;;;;1.95;1.35;;;;;;;35.47;17.18;100380.41;5073980;28;20008;-61
2022/08/11 13:45:09;;;;;;;2.83;1.35;;;;;;;35.24;17.66;100377.16;5074048;28;20036;-61
2022/08/11 13:47:37;;;;;;;2.55;1.70;;;;;;;34.83;18.05;100380.59;5073907;28;20413;-61
2022/08/11 13:50:04;;;;;;;2.40;1.60;;;;;;;34.90;18.27;100373.41;5073569;28;20135;-61
2022/08/11 13:52:30;;;;;;;1.98;1.60;;;;;;;34.24;19.07;100372.97;5073664;28;20032;-60
2022/08/11 13:54:56;;;;;;;1.52;1.42;;;;;;;34.19;19.26;100371.19;5073274;28;20064;-61
2022/08/11 13:57:23;;;;;;;3.08;1.30;;;;;;;33.89;19.18;100367.44;5073715;28;20032;-61
2022/08/11 13:59:53;;;;;;;3.72;1.52;;;;;;;33.55;19.21;100373.81;5073399;28;20033;-61
2022/08/11 14:02:30;;;;;;;2.20;1.63;;;;;;;33.64;19.43;100366.31;5073700;28;20052;-61
2022/08/11 14:05:07;;;;;;;;;;;;;;;33.32;19.43;100364.00;5074132;28;20572;-61
2022/08/11 14:07:38;;;;;;;3.97;1.58;;;;;;;33.19;19.46;100354.72;5073566;28;19912;-60
2022/08/11 14:10:06;;;;;;;1.30;1.20;;;;;;;33.01;19.70;100364.13;5073146;28;20106;-61
2022/08/11 14:15:21;;;;;;;;;;;;;;;33.05;19.93;100346.56;5073679;28;20131;-54
2022/08/11 14:17:54;;;;;;;2.65;1.50;;;;;;;32.80;20.04;100348.13;5073247;28;20388;-54
2022/08/11 14:20:21;;;;;;;1.65;1.38;;;;;;;32.76;20.13;100340.81;5072887;28;20024;-54
2022/08/11 14:22:48;;;;;;;1.95;1.50;;;;;;;32.63;20.10;100353.56;5073267;28;20388;-52
2022/08/11 14:25:15;;;;;;;2.00;1.40;;;;;;;32.38;19.91;100335.78;5073036;28;20116;-53
2022/08/11 14:27:43;;;;;;;5.45;1.73;;;;;;;32.35;19.83;100340.00;5072974;28;20032;-56
2022/08/11 14:30:53;;;;;;;2.95;1.40;;;;;;;32.12;20.55;100336.41;5072714;28;20032;-55
2022/08/11 14:32:56;;;;;;;;;;;;;;;32.06;19.92;100334.09;5073235;28;20098;-51
2022/08/11 14:35:22;;;;;;;2.03;1.30;;;;;;;31.97;20.36;100325.78;5072746;28;19927;-50
2022/08/11 14:37:48;;;;;;;3.22;1.73;;;;;;;31.99;20.19;100312.50;5072550;28;20040;-53
2022/08/11 14:47:03;;;;;;;2.90;1.42;;;;;;;32.08;20.14;100309.81;5072193;28;20082;-58
2022/08/11 14:48:30;;;;;;;7.75;1.50;;;;;;;31.58;20.29;100309.94;5072405;28;20033;-58
2022/08/11 14:50:57;;;;;;;3.20;1.30;;;;;;;31.60;20.67;100310.44;5070949;28;20489;-56
2022/08/11 14:53:22;;;;;;;1.73;1.33;;;;;;;31.56;20.64;100302.00;5073030;28;20055;-56
2022/08/11 14:58:33;;;;;;;1.95;1.55;;;;;;;31.50;20.27;100308.75;5072531;28;20067;-54
2022/08/11 15:01:01;;;;;;;2.42;1.58;;;;;;;31.40;20.64;100297.16;5072067;28;20365;-54
2022/08/11 15:03:29;;;;;;;3.08;1.35;;;;;;;31.10;20.49;100307.69;5072511;28;20440;-54
2022/08/11 15:05:58;;;;;;;2.08;1.25;;;;;;;30.96;20.81;100302.22;5071394;28;20048;-57
2022/08/11 15:14:03;;;;;;;4.93;1.60;;;;;;;31.11;20.30;100300.28;5072048;28;20047;-56
2022/08/11 15:19:14;;;;;;;3.08;1.60;;;;;;;31.10;20.37;100307.69;5071808;28;20044;-57
2022/08/11 15:24:24;;;;;;;3.38;1.88;;;;;;;31.03;20.62;100280.59;5072164;28;20048;-53
2022/08/11 15:37:57;;;;;;;3.28;1.50;;;;;;;30.98;20.30;100283.47;5071802;28;20032;-57
2022/08/11 15:46:29;;;;;;;1.60;1.35;;;;;;;30.90;20.28;100275.94;5071655;28;20399;-54
2022/08/11 15:49:00;;;;;;;2.17;1.45;;;;;;;30.82;20.71;100275.84;5071545;28;20037;-51
2022/08/11 15:51:31;;;;;;;2.47;1.80;;;;;;;30.64;20.76;100258.31;5071444;28;20442;-46
2022/08/11 15:54:02;;;;;;;2.70;1.98;;;;;;;30.63;23.74;100259.44;5071933;28;20044;-48
2022/08/11 15:56:31;;;;;;;6.28;1.63;;;;;;;30.65;22.04;100258.03;5071524;28;20028;-60
2022/08/11 16:04:32;;;;;;;2.55;1.58;;;;;;;30.64;21.14;100258.31;5071506;28;20052;-59
2022/08/11 16:07:18;;;;;;;2.78;1.35;;;;;;;30.63;21.29;100251.22;5071210;28;20489;-60
2022/08/11 16:09:48;;;;;;;2.67;1.60;;;;;;;30.63;21.39;100259.44;5071154;28;20040;-59
2022/08/11 16:12:32;;;;;;;3.08;1.50;;;;;;;30.51;20.90;100251.72;5071224;28;20305;-60
2022/08/11 16:17:48;;;;;;;3.25;1.40;;;;;;;30.50;21.41;100253.66;5070920;28;20490;-60
2022/08/11 16:20:18;;;;;;;3.63;1.38;;;;;;;30.51;21.72;100257.22;5069493;28;20094;-58
2022/08/11 16:22:46;;;;;;;2.20;1.50;;;;;;;30.44;20.65;100246.63;5069969;28;20033;-60
2022/08/11 16:25:18;;;;;;;1.60;1.25;;;;;;;30.39;20.69;100256.94;5071095;28;20060;-60
2022/08/11 16:27:50;;;;;;;3.55;1.52;;;;;;;30.44;20.92;100245.81;5071410;28;20039;-60
2022/08/11 16:30:16;;;;;;;3.08;1.30;;;;;;;30.39;20.72;100248.69;5070896;28;20036;-60
2022/08/11 16:32:45;;;;;;;2.33;1.50;;;;;;;30.34;21.06;100252.34;5070062;28;20439;-60
2022/08/11 16:40:49;;;;;;;4.65;1.60;;;;;;;30.27;20.71;100244.50;5069317;28;20044;-60
2022/08/11 16:48:49;;;;;;;4.18;1.60;;;;;;;30.16;21.17;100245.81;5070869;28;20075;-60
2022/08/11 16:51:16;;;;;;;1.55;1.25;;;;;;;30.15;21.65;100237.88;5070673;28;20047;-60
2022/08/11 16:53:43;;;;;;;1.88;1.50;;;;;;;30.13;21.74;100240.13;5070735;28;20040;-59
2022/08/11 16:56:10;;;;;;;;;;;;;;;30.10;21.51;100246.22;5070943;28;20128;-58
2022/08/11 17:01:23;;;;;;;1.90;1.65;;;;;;;29.94;21.62;100237.41;5070713;28;20047;-59
2022/08/11 17:18:38;;;;;;;1.60;1.42;;;;;;;29.63;22.63;100234.38;5070716;28;20505;-59
2022/08/11 17:20:57;;;;;;;4.20;2.20;;;;;;;29.57;22.68;100230.09;5070286;28;20072;-60
2022/08/11 17:26:08;;;;;;;3.92;1.80;;;;;;;29.49;22.89;100219.78;5070853;28;20029;-59
2022/08/11 17:28:34;;;;;;;2.60;1.50;;;;;;;29.40;22.98;100222.38;5071672;28;20044;-60
2022/08/11 17:36:30;;;;;;;4.35;1.77;;;;;;;29.32;23.04;100231.28;5074107;28;20040;-60
2022/08/11 17:38:56;;;;;;;2.20;1.50;;;;;;;29.31;23.31;100229.66;5074007;28;20093;-60
2022/08/11 17:49:38;;;;;;;2.75;1.55;;;;;;;29.04;23.83;100224.88;5072510;28;20078;-60
2022/08/11 18:00:24;;;;;;;6.00;1.73;;;;;;;28.77;24.11;100247.41;5073361;28;20450;-60
2022/08/11 18:05:42;;;;;;;3.07;2.10;;;;;;;28.67;24.43;100234.66;5073498;28;20043;-60
